sensor_id;sensor_type;location;lat;lon;timestamp;P1;durP1;ratioP1;P2;durP2;ratioP2
77701;SDS011;66868;42.708;23.404;2023-07-24T00:00:22;10.60;;;7.60;;
77701;SDS011;66868;42.708;23.404;2023-07-24T00:02:48;9.63;;;7.45;;
77701;SDS011;66868;42.708;23.404;2023-07-24T00:05:13;8.40;;;7.07;;
77701;SDS011;66868;42.708;23.404;2023-07-24T00:07:38;8.15;;;6.72;;
77701;SDS011;66868;42.708;23.404;2023-07-24T00:10:04;10.05;;;7.47;;
77701;SDS011;66868;42.708;23.404;2023-07-24T00:12:30;8.43;;;7.15;;
77701;SDS011;66868;42.708;23.404;2023-07-24T00:14:55;7.85;;;6.82;;
77701;SDS011;66868;42.708;23.404;2023-07-24T00:17:20;8.75;;;7.78;;
77701;SDS011;66868;42.708;23.404;2023-07-24T00:19:46;11.43;;;7.65;;
77701;SDS011;66868;42.708;23.404;2023-07-24T00:22:11;7.85;;;6.72;;
77701;SDS011;66868;42.708;23.404;2023-07-24T00:24:37;8.82;;;7.60;;
77701;SDS011;66868;42.708;23.404;2023-07-24T00:27:02;8.75;;;7.80;;
77701;SDS011;66868;42.708;23.404;2023-07-24T00:29:28;9.65;;;7.40;;
77701;SDS011;66868;42.708;23.404;2023-07-24T00:31:54;7.65;;;6.88;;
77701;SDS011;66868;42.708;23.404;2023-07-24T00:34:19;9.98;;;7.97;;
77701;SDS011;66868;42.708;23.404;2023-07-24T00:36:45;9.65;;;7.50;;
77701;SDS011;66868;42.708;23.404;2023-07-24T00:39:10;8.50;;;7.07;;
77701;SDS011;66868;42.708;23.404;2023-07-24T00:41:36;8.27;;;7.15;;
77701;SDS011;66868;42.708;23.404;2023-07-24T00:44:02;9.70;;;7.72;;
77701;SDS011;66868;42.708;23.404;2023-07-24T00:46:27;9.30;;;7.07;;
77701;SDS011;66868;42.708;23.404;2023-07-24T00:48:57;9.55;;;7.10;;
77701;SDS011;66868;42.708;23.404;2023-07-24T00:51:24;9.38;;;7.38;;
77701;SDS011;66868;42.708;23.404;2023-07-24T00:53:52;12.45;;;7.75;;
77701;SDS011;66868;42.708;23.404;2023-07-24T00:56:20;8.93;;;8.02;;
77701;SDS011;66868;42.708;23.404;2023-07-24T00:58:46;9.95;;;8.13;;
77701;SDS011;66868;42.708;23.404;2023-07-24T01:01:12;10.95;;;8.38;;
77701;SDS011;66868;42.708;23.404;2023-07-24T01:03:39;9.43;;;7.10;;
77701;SDS011;66868;42.708;23.404;2023-07-24T01:06:04;8.70;;;7.72;;
77701;SDS011;66868;42.708;23.404;2023-07-24T01:08:29;12.60;;;8.18;;
77701;SDS011;66868;42.708;23.404;2023-07-24T01:11:00;9.40;;;8.23;;
77701;SDS011;66868;42.708;23.404;2023-07-24T01:13:42;10.15;;;7.65;;
77701;SDS011;66868;42.708;23.404;2023-07-24T01:16:18;8.13;;;7.25;;
77701;SDS011;66868;42.708;23.404;2023-07-24T01:18:46;15.73;;;8.07;;
77701;SDS011;66868;42.708;23.404;2023-07-24T01:21:15;8.95;;;8.05;;
77701;SDS011;66868;42.708;23.404;2023-07-24T01:23:50;11.02;;;8.27;;
77701;SDS011;66868;42.708;23.404;2023-07-24T01:26:19;8.93;;;7.68;;
77701;SDS011;66868;42.708;23.404;2023-07-24T01:28:46;7.85;;;7.05;;
77701;SDS011;66868;42.708;23.404;2023-07-24T01:31:12;8.57;;;7.40;;
77701;SDS011;66868;42.708;23.404;2023-07-24T01:33:37;11.15;;;7.43;;
77701;SDS011;66868;42.708;23.404;2023-07-24T01:36:04;8.63;;;7.78;;
77701;SDS011;66868;42.708;23.404;2023-07-24T01:38:34;9.48;;;6.97;;
77701;SDS011;66868;42.708;23.404;2023-07-24T01:41:00;8.15;;;7.35;;
77701;SDS011;66868;42.708;23.404;2023-07-24T01:43:26;10.57;;;7.32;;
77701;SDS011;66868;42.708;23.404;2023-07-24T01:45:53;8.65;;;7.55;;
77701;SDS011;66868;42.708;23.404;2023-07-24T01:48:19;11.82;;;7.22;;
77701;SDS011;66868;42.708;23.404;2023-07-24T01:50:44;8.40;;;6.93;;
77701;SDS011;66868;42.708;23.404;2023-07-24T01:53:10;9.52;;;6.88;;
77701;SDS011;66868;42.708;23.404;2023-07-24T01:55:35;8.43;;;6.85;;
77701;SDS011;66868;42.708;23.404;2023-07-24T01:58:00;8.95;;;7.70;;
77701;SDS011;66868;42.708;23.404;2023-07-24T02:00:26;8.18;;;7.40;;
77701;SDS011;66868;42.708;23.404;2023-07-24T02:02:52;9.40;;;7.50;;
77701;SDS011;66868;42.708;23.404;2023-07-24T02:05:17;8.43;;;7.63;;
77701;SDS011;66868;42.708;23.404;2023-07-24T02:07:43;8.25;;;6.75;;
77701;SDS011;66868;42.708;23.404;2023-07-24T02:10:08;8.18;;;6.85;;
77701;SDS011;66868;42.708;23.404;2023-07-24T02:12:34;8.05;;;7.28;;
77701;SDS011;66868;42.708;23.404;2023-07-24T02:14:59;7.40;;;6.75;;
77701;SDS011;66868;42.708;23.404;2023-07-24T02:17:25;7.72;;;6.97;;
77701;SDS011;66868;42.708;23.404;2023-07-24T02:19:50;8.13;;;6.82;;
77701;SDS011;66868;42.708;23.404;2023-07-24T02:22:16;10.48;;;7.63;;
77701;SDS011;66868;42.708;23.404;2023-07-24T02:24:41;8.20;;;6.75;;
77701;SDS011;66868;42.708;23.404;2023-07-24T02:27:07;9.48;;;6.75;;
77701;SDS011;66868;42.708;23.404;2023-07-24T02:29:32;7.65;;;6.97;;
77701;SDS011;66868;42.708;23.404;2023-07-24T02:32:01;8.00;;;7.25;;
77701;SDS011;66868;42.708;23.404;2023-07-24T02:34:27;7.80;;;7.07;;
77701;SDS011;66868;42.708;23.404;2023-07-24T02:36:53;8.10;;;7.18;;
77701;SDS011;66868;42.708;23.404;2023-07-24T02:39:18;8.45;;;6.50;;
77701;SDS011;66868;42.708;23.404;2023-07-24T02:41:44;10.85;;;7.15;;
77701;SDS011;66868;42.708;23.404;2023-07-24T02:44:10;9.18;;;7.28;;
77701;SDS011;66868;42.708;23.404;2023-07-24T02:46:36;7.97;;;7.18;;
77701;SDS011;66868;42.708;23.404;2023-07-24T02:49:01;9.43;;;7.28;;
77701;SDS011;66868;42.708;23.404;2023-07-24T02:51:27;9.52;;;7.45;;
77701;SDS011;66868;42.708;23.404;2023-07-24T02:53:53;7.47;;;6.78;;
77701;SDS011;66868;42.708;23.404;2023-07-24T02:56:19;11.07;;;7.40;;
77701;SDS011;66868;42.708;23.404;2023-07-24T02:58:45;6.97;;;6.38;;
77701;SDS011;66868;42.708;23.404;2023-07-24T03:01:11;7.70;;;6.90;;
77701;SDS011;66868;42.708;23.404;2023-07-24T03:03:39;9.38;;;8.02;;
77701;SDS011;66868;42.708;23.404;2023-07-24T03:06:04;11.63;;;7.53;;
77701;SDS011;66868;42.708;23.404;2023-07-24T03:08:30;9.05;;;7.75;;
77701;SDS011;66868;42.708;23.404;2023-07-24T03:10:55;8.82;;;7.28;;
77701;SDS011;66868;42.708;23.404;2023-07-24T03:13:20;8.32;;;6.80;;
77701;SDS011;66868;42.708;23.404;2023-07-24T03:15:58;8.13;;;7.28;;
77701;SDS011;66868;42.708;23.404;2023-07-24T03:18:24;9.10;;;8.07;;
77701;SDS011;66868;42.708;23.404;2023-07-24T03:20:49;8.73;;;7.18;;
77701;SDS011;66868;42.708;23.404;2023-07-24T03:23:15;8.35;;;6.88;;
77701;SDS011;66868;42.708;23.404;2023-07-24T03:25:41;11.05;;;7.25;;
77701;SDS011;66868;42.708;23.404;2023-07-24T03:28:06;9.50;;;7.28;;
77701;SDS011;66868;42.708;23.404;2023-07-24T03:30:32;10.38;;;7.18;;
77701;SDS011;66868;42.708;23.404;2023-07-24T03:32:57;7.57;;;6.88;;
77701;SDS011;66868;42.708;23.404;2023-07-24T03:35:23;13.10;;;7.13;;
77701;SDS011;66868;42.708;23.404;2023-07-24T03:37:48;8.18;;;7.22;;
77701;SDS011;66868;42.708;23.404;2023-07-24T03:40:13;10.05;;;7.13;;
77701;SDS011;66868;42.708;23.404;2023-07-24T03:42:40;9.52;;;6.82;;
77701;SDS011;66868;42.708;23.404;2023-07-24T03:45:06;8.02;;;7.22;;
77701;SDS011;66868;42.708;23.404;2023-07-24T03:47:32;9.38;;;7.93;;
77701;SDS011;66868;42.708;23.404;2023-07-24T03:49:57;10.30;;;7.15;;
77701;SDS011;66868;42.708;23.404;2023-07-24T03:52:23;8.93;;;6.75;;
77701;SDS011;66868;42.708;23.404;2023-07-24T03:54:48;11.95;;;7.35;;
77701;SDS011;66868;42.708;23.404;2023-07-24T03:57:16;8.98;;;7.15;;
77701;SDS011;66868;42.708;23.404;2023-07-24T03:59:41;10.38;;;6.60;;
77701;SDS011;66868;42.708;23.404;2023-07-24T04:02:07;8.15;;;7.35;;
77701;SDS011;66868;42.708;23.404;2023-07-24T04:04:32;10.15;;;7.22;;
77701;SDS011;66868;42.708;23.404;2023-07-24T04:06:58;7.85;;;6.97;;
77701;SDS011;66868;42.708;23.404;2023-07-24T04:09:23;10.77;;;7.93;;
77701;SDS011;66868;42.708;23.404;2023-07-24T04:11:48;19.77;;;8.40;;
77701;SDS011;66868;42.708;23.404;2023-07-24T04:14:14;8.30;;;7.40;;
77701;SDS011;66868;42.708;23.404;2023-07-24T04:16:39;9.13;;;7.28;;
77701;SDS011;66868;42.708;23.404;2023-07-24T04:19:04;11.75;;;8.18;;
77701;SDS011;66868;42.708;23.404;2023-07-24T04:21:30;8.48;;;6.78;;
77701;SDS011;66868;42.708;23.404;2023-07-24T04:23:56;13.25;;;7.90;;
77701;SDS011;66868;42.708;23.404;2023-07-24T04:26:21;10.27;;;7.45;;
77701;SDS011;66868;42.708;23.404;2023-07-24T04:28:46;10.00;;;7.53;;
77701;SDS011;66868;42.708;23.404;2023-07-24T04:31:12;10.35;;;7.85;;
77701;SDS011;66868;42.708;23.404;2023-07-24T04:33:38;8.60;;;7.55;;
77701;SDS011;66868;42.708;23.404;2023-07-24T04:36:04;11.38;;;8.20;;
77701;SDS011;66868;42.708;23.404;2023-07-24T04:38:29;10.68;;;7.35;;
77701;SDS011;66868;42.708;23.404;2023-07-24T04:40:55;11.05;;;8.40;;
77701;SDS011;66868;42.708;23.404;2023-07-24T04:43:20;8.90;;;8.00;;
77701;SDS011;66868;42.708;23.404;2023-07-24T04:45:45;11.27;;;7.47;;
77701;SDS011;66868;42.708;23.404;2023-07-24T04:48:11;10.43;;;7.85;;
77701;SDS011;66868;42.708;23.404;2023-07-24T04:50:36;12.65;;;7.63;;
77701;SDS011;66868;42.708;23.404;2023-07-24T04:53:01;9.48;;;7.72;;
77701;SDS011;66868;42.708;23.404;2023-07-24T04:55:27;8.85;;;7.95;;
77701;SDS011;66868;42.708;23.404;2023-07-24T04:57:53;10.27;;;7.53;;
77701;SDS011;66868;42.708;23.404;2023-07-24T05:00:18;13.05;;;7.85;;
77701;SDS011;66868;42.708;23.404;2023-07-24T05:02:44;12.70;;;7.57;;
77701;SDS011;66868;42.708;23.404;2023-07-24T05:05:09;11.38;;;8.65;;
77701;SDS011;66868;42.708;23.404;2023-07-24T05:07:35;11.88;;;8.55;;
77701;SDS011;66868;42.708;23.404;2023-07-24T05:10:00;14.02;;;8.65;;
77701;SDS011;66868;42.708;23.404;2023-07-24T05:12:26;10.98;;;8.18;;
77701;SDS011;66868;42.708;23.404;2023-07-24T05:14:51;11.43;;;7.80;;
77701;SDS011;66868;42.708;23.404;2023-07-24T05:17:16;10.43;;;7.68;;
77701;SDS011;66868;42.708;23.404;2023-07-24T05:19:42;9.65;;;7.80;;
77701;SDS011;66868;42.708;23.404;2023-07-24T05:22:07;12.70;;;8.85;;
77701;SDS011;66868;42.708;23.404;2023-07-24T05:24:35;11.38;;;7.88;;
77701;SDS011;66868;42.708;23.404;2023-07-24T05:27:01;12.27;;;7.97;;
77701;SDS011;66868;42.708;23.404;2023-07-24T05:29:27;13.20;;;7.68;;
77701;SDS011;66868;42.708;23.404;2023-07-24T05:31:52;12.80;;;7.95;;
77701;SDS011;66868;42.708;23.404;2023-07-24T05:34:17;13.98;;;6.75;;
77701;SDS011;66868;42.708;23.404;2023-07-24T05:36:43;10.48;;;7.88;;
77701;SDS011;66868;42.708;23.404;2023-07-24T05:39:08;13.35;;;8.40;;
77701;SDS011;66868;42.708;23.404;2023-07-24T05:41:33;19.95;;;8.05;;
77701;SDS011;66868;42.708;23.404;2023-07-24T05:43:59;23.90;;;8.10;;
77701;SDS011;66868;42.708;23.404;2023-07-24T05:46:24;10.68;;;7.43;;
77701;SDS011;66868;42.708;23.404;2023-07-24T05:48:49;15.45;;;7.63;;
77701;SDS011;66868;42.708;23.404;2023-07-24T05:51:15;23.20;;;8.20;;
77701;SDS011;66868;42.708;23.404;2023-07-24T05:53:40;16.42;;;7.78;;
77701;SDS011;66868;42.708;23.404;2023-07-24T05:56:05;11.25;;;8.30;;
77701;SDS011;66868;42.708;23.404;2023-07-24T05:58:31;9.52;;;8.30;;
77701;SDS011;66868;42.708;23.404;2023-07-24T06:00:56;15.60;;;7.40;;
77701;SDS011;66868;42.708;23.404;2023-07-24T06:03:22;21.77;;;12.45;;
77701;SDS011;66868;42.708;23.404;2023-07-24T06:05:52;25.67;;;11.00;;
77701;SDS011;66868;42.708;23.404;2023-07-24T06:08:19;27.98;;;8.95;;
77701;SDS011;66868;42.708;23.404;2023-07-24T06:10:48;25.15;;;8.30;;
77701;SDS011;66868;42.708;23.404;2023-07-24T06:13:14;14.80;;;7.68;;
77701;SDS011;66868;42.708;23.404;2023-07-24T06:15:40;10.07;;;7.85;;
77701;SDS011;66868;42.708;23.404;2023-07-24T06:18:06;10.68;;;8.48;;
77701;SDS011;66868;42.708;23.404;2023-07-24T06:20:31;14.27;;;7.60;;
77701;SDS011;66868;42.708;23.404;2023-07-24T06:22:56;12.85;;;7.80;;
77701;SDS011;66868;42.708;23.404;2023-07-24T06:25:22;19.85;;;7.63;;
77701;SDS011;66868;42.708;23.404;2023-07-24T06:27:47;11.63;;;7.45;;
77701;SDS011;66868;42.708;23.404;2023-07-24T06:30:13;9.02;;;7.88;;
77701;SDS011;66868;42.708;23.404;2023-07-24T06:32:38;11.07;;;8.43;;
77701;SDS011;66868;42.708;23.404;2023-07-24T06:35:03;13.80;;;8.20;;
77701;SDS011;66868;42.708;23.404;2023-07-24T06:37:29;9.55;;;7.78;;
77701;SDS011;66868;42.708;23.404;2023-07-24T06:39:54;16.95;;;8.27;;
77701;SDS011;66868;42.708;23.404;2023-07-24T06:42:20;10.73;;;8.40;;
77701;SDS011;66868;42.708;23.404;2023-07-24T06:44:45;10.07;;;8.30;;
77701;SDS011;66868;42.708;23.404;2023-07-24T06:47:10;19.30;;;8.80;;
77701;SDS011;66868;42.708;23.404;2023-07-24T06:49:36;16.77;;;7.70;;
77701;SDS011;66868;42.708;23.404;2023-07-24T06:52:01;21.10;;;8.70;;
77701;SDS011;66868;42.708;23.404;2023-07-24T06:54:27;19.55;;;8.48;;
77701;SDS011;66868;42.708;23.404;2023-07-24T06:56:52;24.13;;;9.25;;
77701;SDS011;66868;42.708;23.404;2023-07-24T06:59:18;20.33;;;8.55;;
77701;SDS011;66868;42.708;23.404;2023-07-24T07:01:43;18.20;;;8.32;;
77701;SDS011;66868;42.708;23.404;2023-07-24T07:04:08;21.02;;;8.32;;
77701;SDS011;66868;42.708;23.404;2023-07-24T07:06:34;16.92;;;8.82;;
77701;SDS011;66868;42.708;23.404;2023-07-24T07:08:59;24.05;;;9.23;;
77701;SDS011;66868;42.708;23.404;2023-07-24T07:11:29;15.07;;;8.43;;
77701;SDS011;66868;42.708;23.404;2023-07-24T07:13:55;16.63;;;8.57;;
77701;SDS011;66868;42.708;23.404;2023-07-24T07:16:20;11.35;;;8.25;;
77701;SDS011;66868;42.708;23.404;2023-07-24T07:18:45;14.77;;;8.98;;
77701;SDS011;66868;42.708;23.404;2023-07-24T07:21:11;19.23;;;9.07;;
77701;SDS011;66868;42.708;23.404;2023-07-24T07:23:36;9.27;;;8.30;;
77701;SDS011;66868;42.708;23.404;2023-07-24T07:26:01;14.32;;;7.95;;
77701;SDS011;66868;42.708;23.404;2023-07-24T07:28:27;14.27;;;8.73;;
77701;SDS011;66868;42.708;23.404;2023-07-24T07:30:53;14.40;;;8.55;;
77701;SDS011;66868;42.708;23.404;2023-07-24T07:33:19;12.30;;;7.80;;
77701;SDS011;66868;42.708;23.404;2023-07-24T07:35:47;10.98;;;8.45;;
77701;SDS011;66868;42.708;23.404;2023-07-24T07:38:12;13.50;;;8.60;;
77701;SDS011;66868;42.708;23.404;2023-07-24T07:40:38;11.75;;;8.27;;
77701;SDS011;66868;42.708;23.404;2023-07-24T07:43:06;15.13;;;8.63;;
77701;SDS011;66868;42.708;23.404;2023-07-24T07:45:31;16.27;;;8.45;;
77701;SDS011;66868;42.708;23.404;2023-07-24T07:47:57;18.10;;;8.40;;
77701;SDS011;66868;42.708;23.404;2023-07-24T07:50:22;12.80;;;8.55;;
77701;SDS011;66868;42.708;23.404;2023-07-24T07:52:51;12.77;;;8.05;;
77701;SDS011;66868;42.708;23.404;2023-07-24T07:55:17;12.02;;;8.65;;
77701;SDS011;66868;42.708;23.404;2023-07-24T07:57:44;29.13;;;9.02;;
77701;SDS011;66868;42.708;23.404;2023-07-24T08:00:09;18.05;;;8.07;;
77701;SDS011;66868;42.708;23.404;2023-07-24T08:02:36;22.67;;;8.07;;
77701;SDS011;66868;42.708;23.404;2023-07-24T08:05:05;19.52;;;8.55;;
77701;SDS011;66868;42.708;23.404;2023-07-24T08:07:32;14.65;;;8.25;;
77701;SDS011;66868;42.708;23.404;2023-07-24T08:09:57;13.30;;;8.52;;
77701;SDS011;66868;42.708;23.404;2023-07-24T08:12:22;16.38;;;8.65;;
77701;SDS011;66868;42.708;23.404;2023-07-24T08:14:48;16.13;;;8.60;;
77701;SDS011;66868;42.708;23.404;2023-07-24T08:17:13;14.98;;;8.60;;
77701;SDS011;66868;42.708;23.404;2023-07-24T08:19:38;22.38;;;9.02;;
77701;SDS011;66868;42.708;23.404;2023-07-24T08:22:04;13.63;;;8.30;;
77701;SDS011;66868;42.708;23.404;2023-07-24T08:24:33;13.43;;;8.95;;
77701;SDS011;66868;42.708;23.404;2023-07-24T08:26:59;16.00;;;8.45;;
77701;SDS011;66868;42.708;23.404;2023-07-24T08:29:24;15.45;;;8.73;;
77701;SDS011;66868;42.708;23.404;2023-07-24T08:31:50;24.88;;;8.82;;
77701;SDS011;66868;42.708;23.404;2023-07-24T08:34:16;18.55;;;8.55;;
77701;SDS011;66868;42.708;23.404;2023-07-24T08:36:41;15.50;;;9.18;;
77701;SDS011;66868;42.708;23.404;2023-07-24T08:39:06;14.35;;;8.35;;
77701;SDS011;66868;42.708;23.404;2023-07-24T08:41:32;18.33;;;8.32;;
77701;SDS011;66868;42.708;23.404;2023-07-24T08:43:59;13.55;;;9.10;;
77701;SDS011;66868;42.708;23.404;2023-07-24T08:46:25;12.27;;;8.35;;
77701;SDS011;66868;42.708;23.404;2023-07-24T08:48:52;24.23;;;9.77;;
77701;SDS011;66868;42.708;23.404;2023-07-24T08:51:19;13.93;;;8.95;;
77701;SDS011;66868;42.708;23.404;2023-07-24T08:53:47;14.57;;;9.00;;
77701;SDS011;66868;42.708;23.404;2023-07-24T08:56:13;14.27;;;9.05;;
77701;SDS011;66868;42.708;23.404;2023-07-24T08:58:39;17.23;;;9.13;;
77701;SDS011;66868;42.708;23.404;2023-07-24T09:01:05;11.25;;;8.15;;
77701;SDS011;66868;42.708;23.404;2023-07-24T09:03:32;14.00;;;8.40;;
77701;SDS011;66868;42.708;23.404;2023-07-24T09:05:58;17.58;;;9.38;;
77701;SDS011;66868;42.708;23.404;2023-07-24T09:08:33;19.40;;;9.35;;
77701;SDS011;66868;42.708;23.404;2023-07-24T09:10:59;18.50;;;8.82;;
77701;SDS011;66868;42.708;23.404;2023-07-24T09:13:26;14.10;;;9.02;;
77701;SDS011;66868;42.708;23.404;2023-07-24T09:15:51;12.00;;;8.27;;
77701;SDS011;66868;42.708;23.404;2023-07-24T09:18:17;15.77;;;8.82;;
77701;SDS011;66868;42.708;23.404;2023-07-24T09:20:44;10.60;;;8.40;;
77701;SDS011;66868;42.708;23.404;2023-07-24T09:23:11;14.95;;;9.25;;
77701;SDS011;66868;42.708;23.404;2023-07-24T09:25:38;16.20;;;9.20;;
77701;SDS011;66868;42.708;23.404;2023-07-24T09:28:12;16.65;;;8.70;;
77701;SDS011;66868;42.708;23.404;2023-07-24T09:30:38;14.25;;;8.73;;
77701;SDS011;66868;42.708;23.404;2023-07-24T09:33:05;10.57;;;8.52;;
77701;SDS011;66868;42.708;23.404;2023-07-24T09:35:33;15.98;;;9.15;;
77701;SDS011;66868;42.708;23.404;2023-07-24T09:38:03;17.58;;;9.10;;
77701;SDS011;66868;42.708;23.404;2023-07-24T09:40:36;23.08;;;9.32;;
77701;SDS011;66868;42.708;23.404;2023-07-24T09:43:03;13.70;;;8.75;;
77701;SDS011;66868;42.708;23.404;2023-07-24T09:46:00;16.23;;;9.38;;
77701;SDS011;66868;42.708;23.404;2023-07-24T09:48:28;15.95;;;9.18;;
77701;SDS011;66868;42.708;23.404;2023-07-24T09:50:57;13.05;;;8.63;;
77701;SDS011;66868;42.708;23.404;2023-07-24T09:53:28;19.15;;;8.35;;
77701;SDS011;66868;42.708;23.404;2023-07-24T09:55:59;21.08;;;8.25;;
77701;SDS011;66868;42.708;23.404;2023-07-24T09:58:27;19.20;;;9.70;;
77701;SDS011;66868;42.708;23.404;2023-07-24T10:00:54;13.10;;;8.18;;
77701;SDS011;66868;42.708;23.404;2023-07-24T10:03:21;22.25;;;9.07;;
77701;SDS011;66868;42.708;23.404;2023-07-24T10:05:47;21.50;;;9.30;;
77701;SDS011;66868;42.708;23.404;2023-07-24T10:08:17;18.00;;;8.50;;
77701;SDS011;66868;42.708;23.404;2023-07-24T10:10:43;13.90;;;8.85;;
77701;SDS011;66868;42.708;23.404;2023-07-24T10:13:10;21.05;;;9.35;;
77701;SDS011;66868;42.708;23.404;2023-07-24T10:15:40;13.98;;;9.25;;
77701;SDS011;66868;42.708;23.404;2023-07-24T10:18:08;18.73;;;9.15;;
77701;SDS011;66868;42.708;23.404;2023-07-24T10:20:35;28.25;;;9.63;;
77701;SDS011;66868;42.708;23.404;2023-07-24T10:23:03;16.48;;;8.73;;
77701;SDS011;66868;42.708;23.404;2023-07-24T10:25:33;19.08;;;8.48;;
77701;SDS011;66868;42.708;23.404;2023-07-24T10:28:03;17.17;;;8.90;;
77701;SDS011;66868;42.708;23.404;2023-07-24T10:30:32;16.08;;;9.10;;
77701;SDS011;66868;42.708;23.404;2023-07-24T10:38:38;30.77;;;9.13;;
77701;SDS011;66868;42.708;23.404;2023-07-24T10:41:05;14.07;;;9.10;;
77701;SDS011;66868;42.708;23.404;2023-07-24T10:43:47;21.08;;;10.20;;
77701;SDS011;66868;42.708;23.404;2023-07-24T10:46:15;20.25;;;9.68;;
77701;SDS011;66868;42.708;23.404;2023-07-24T10:48:43;17.85;;;9.88;;
77701;SDS011;66868;42.708;23.404;2023-07-24T10:51:09;23.48;;;9.55;;
77701;SDS011;66868;42.708;23.404;2023-07-24T10:53:36;19.65;;;9.60;;
77701;SDS011;66868;42.708;23.404;2023-07-24T10:56:02;14.50;;;8.75;;
77701;SDS011;66868;42.708;23.404;2023-07-24T10:58:29;14.60;;;9.43;;
77701;SDS011;66868;42.708;23.404;2023-07-24T11:00:55;16.63;;;9.25;;
77701;SDS011;66868;42.708;23.404;2023-07-24T11:03:21;16.27;;;9.23;;
77701;SDS011;66868;42.708;23.404;2023-07-24T11:05:47;20.45;;;9.27;;
77701;SDS011;66868;42.708;23.404;2023-07-24T11:08:13;20.83;;;9.25;;
77701;SDS011;66868;42.708;23.404;2023-07-24T11:10:45;16.20;;;8.98;;
77701;SDS011;66868;42.708;23.404;2023-07-24T11:13:13;16.63;;;8.90;;
77701;SDS011;66868;42.708;23.404;2023-07-24T11:15:39;17.90;;;8.43;;
77701;SDS011;66868;42.708;23.404;2023-07-24T11:18:04;13.38;;;8.77;;
77701;SDS011;66868;42.708;23.404;2023-07-24T11:20:33;18.60;;;8.70;;
77701;SDS011;66868;42.708;23.404;2023-07-24T11:23:14;16.90;;;9.18;;
77701;SDS011;66868;42.708;23.404;2023-07-24T11:25:40;18.90;;;8.95;;
77701;SDS011;66868;42.708;23.404;2023-07-24T11:28:06;20.67;;;8.80;;
77701;SDS011;66868;42.708;23.404;2023-07-24T11:30:36;13.55;;;8.27;;
77701;SDS011;66868;42.708;23.404;2023-07-24T11:33:04;28.10;;;9.00;;
77701;SDS011;66868;42.708;23.404;2023-07-24T11:35:31;17.75;;;8.57;;
77701;SDS011;66868;42.708;23.404;2023-07-24T11:37:57;11.38;;;7.82;;
77701;SDS011;66868;42.708;23.404;2023-07-24T11:40:32;23.00;;;8.73;;
77701;SDS011;66868;42.708;23.404;2023-07-24T11:43:01;12.98;;;8.20;;
77701;SDS011;66868;42.708;23.404;2023-07-24T11:45:28;13.43;;;8.45;;
77701;SDS011;66868;42.708;23.404;2023-07-24T11:47:55;14.60;;;8.70;;
77701;SDS011;66868;42.708;23.404;2023-07-24T11:50:21;19.42;;;8.93;;
77701;SDS011;66868;42.708;23.404;2023-07-24T11:52:48;16.90;;;8.32;;
77701;SDS011;66868;42.708;23.404;2023-07-24T11:55:33;16.02;;;8.80;;
77701;SDS011;66868;42.708;23.404;2023-07-24T11:57:59;9.50;;;7.88;;
77701;SDS011;66868;42.708;23.404;2023-07-24T12:00:32;15.40;;;8.20;;
77701;SDS011;66868;42.708;23.404;2023-07-24T12:02:58;18.13;;;8.73;;
77701;SDS011;66868;42.708;23.404;2023-07-24T12:05:24;17.20;;;7.90;;
77701;SDS011;66868;42.708;23.404;2023-07-24T12:07:53;10.20;;;7.40;;
77701;SDS011;66868;42.708;23.404;2023-07-24T12:10:26;13.50;;;7.93;;
77701;SDS011;66868;42.708;23.404;2023-07-24T12:12:52;15.63;;;7.90;;
77701;SDS011;66868;42.708;23.404;2023-07-24T12:15:18;15.40;;;7.78;;
77701;SDS011;66868;42.708;23.404;2023-07-24T12:17:55;12.35;;;8.02;;
77701;SDS011;66868;42.708;23.404;2023-07-24T12:20:24;12.00;;;7.50;;
77701;SDS011;66868;42.708;23.404;2023-07-24T12:22:50;14.40;;;7.78;;
77701;SDS011;66868;42.708;23.404;2023-07-24T12:25:15;18.30;;;7.22;;
77701;SDS011;66868;42.708;23.404;2023-07-24T12:27:41;14.52;;;7.43;;
77701;SDS011;66868;42.708;23.404;2023-07-24T12:30:07;12.05;;;7.50;;
77701;SDS011;66868;42.708;23.404;2023-07-24T12:32:33;11.85;;;7.88;;
77701;SDS011;66868;42.708;23.404;2023-07-24T12:34:59;14.20;;;7.60;;
77701;SDS011;66868;42.708;23.404;2023-07-24T12:37:25;11.98;;;7.28;;
77701;SDS011;66868;42.708;23.404;2023-07-24T12:39:50;15.35;;;7.63;;
77701;SDS011;66868;42.708;23.404;2023-07-24T12:42:16;10.70;;;7.70;;
77701;SDS011;66868;42.708;23.404;2023-07-24T12:44:42;12.13;;;7.93;;
77701;SDS011;66868;42.708;23.404;2023-07-24T12:47:08;11.68;;;8.45;;
77701;SDS011;66868;42.708;23.404;2023-07-24T12:49:33;14.20;;;7.28;;
77701;SDS011;66868;42.708;23.404;2023-07-24T12:51:59;8.63;;;7.45;;
77701;SDS011;66868;42.708;23.404;2023-07-24T12:54:24;11.52;;;8.52;;
77701;SDS011;66868;42.708;23.404;2023-07-24T12:56:50;20.55;;;7.60;;
77701;SDS011;66868;42.708;23.404;2023-07-24T12:59:15;15.10;;;8.48;;
77701;SDS011;66868;42.708;23.404;2023-07-24T13:01:41;17.63;;;7.90;;
77701;SDS011;66868;42.708;23.404;2023-07-24T13:04:07;15.15;;;7.70;;
77701;SDS011;66868;42.708;23.404;2023-07-24T13:06:33;15.57;;;6.72;;
77701;SDS011;66868;42.708;23.404;2023-07-24T13:09:02;18.52;;;7.63;;
77701;SDS011;66868;42.708;23.404;2023-07-24T13:11:33;15.82;;;7.47;;
77701;SDS011;66868;42.708;23.404;2023-07-24T13:14:19;8.18;;;7.13;;
77701;SDS011;66868;42.708;23.404;2023-07-24T13:16:51;15.40;;;7.40;;
77701;SDS011;66868;42.708;23.404;2023-07-24T13:19:17;15.60;;;7.75;;
77701;SDS011;66868;42.708;23.404;2023-07-24T13:21:42;10.57;;;7.00;;
77701;SDS011;66868;42.708;23.404;2023-07-24T13:24:10;13.60;;;7.40;;
77701;SDS011;66868;42.708;23.404;2023-07-24T13:26:36;11.05;;;6.68;;
77701;SDS011;66868;42.708;23.404;2023-07-24T13:29:02;12.27;;;6.97;;
77701;SDS011;66868;42.708;23.404;2023-07-24T13:31:28;10.27;;;7.00;;
77701;SDS011;66868;42.708;23.404;2023-07-24T13:33:54;15.55;;;7.47;;
77701;SDS011;66868;42.708;23.404;2023-07-24T13:36:19;16.98;;;7.35;;
77701;SDS011;66868;42.708;23.404;2023-07-24T13:38:45;8.80;;;7.15;;
77701;SDS011;66868;42.708;23.404;2023-07-24T13:41:10;7.57;;;6.82;;
77701;SDS011;66868;42.708;23.404;2023-07-24T13:43:36;8.57;;;7.82;;
77701;SDS011;66868;42.708;23.404;2023-07-24T13:46:01;10.25;;;7.30;;
77701;SDS011;66868;42.708;23.404;2023-07-24T13:48:30;12.52;;;6.75;;
77701;SDS011;66868;42.708;23.404;2023-07-24T13:50:55;12.10;;;7.43;;
77701;SDS011;66868;42.708;23.404;2023-07-24T13:53:21;8.85;;;7.32;;
77701;SDS011;66868;42.708;23.404;2023-07-24T13:55:47;10.48;;;7.25;;
77701;SDS011;66868;42.708;23.404;2023-07-24T13:58:12;9.68;;;7.88;;
77701;SDS011;66868;42.708;23.404;2023-07-24T14:00:38;14.88;;;7.80;;
77701;SDS011;66868;42.708;23.404;2023-07-24T14:03:03;9.80;;;7.57;;
77701;SDS011;66868;42.708;23.404;2023-07-24T14:05:28;9.88;;;7.03;;
77701;SDS011;66868;42.708;23.404;2023-07-24T14:07:54;10.60;;;7.53;;
77701;SDS011;66868;42.708;23.404;2023-07-24T14:10:21;15.93;;;8.50;;
77701;SDS011;66868;42.708;23.404;2023-07-24T14:12:47;11.50;;;7.47;;
77701;SDS011;66868;42.708;23.404;2023-07-24T14:15:12;17.60;;;7.93;;
77701;SDS011;66868;42.708;23.404;2023-07-24T14:17:38;11.65;;;7.68;;
77701;SDS011;66868;42.708;23.404;2023-07-24T14:20:03;14.30;;;8.20;;
77701;SDS011;66868;42.708;23.404;2023-07-24T14:22:30;9.80;;;7.80;;
77701;SDS011;66868;42.708;23.404;2023-07-24T14:24:55;13.20;;;7.78;;
77701;SDS011;66868;42.708;23.404;2023-07-24T14:27:20;14.25;;;7.43;;